createdAt,value
2018-11-06T00:02:16.774Z,88.61
2018-11-06T00:04:43.081Z,86.14
2018-11-06T00:07:09.404Z,85.21
2018-11-06T00:09:35.704Z,85.40
2018-11-06T00:12:02.026Z,85.23
2018-11-06T00:14:28.333Z,85.18
2018-11-06T00:16:54.660Z,83.89
2018-11-06T00:19:20.988Z,83.52
2018-11-06T00:21:47.315Z,83.43
2018-11-06T00:24:13.613Z,82.83
2018-11-06T00:26:39.939Z,82.54
2018-11-06T00:29:06.239Z,80.95
2018-11-06T00:31:32.535Z,80.72
2018-11-06T00:33:58.908Z,81.59
2018-11-06T00:36:25.196Z,82.97
2018-11-06T00:38:51.528Z,83.59
2018-11-06T00:41:17.854Z,83.01
2018-11-06T00:43:44.148Z,82.48
2018-11-06T00:46:10.456Z,83.43
2018-11-06T00:48:36.760Z,84.11
2018-11-06T00:51:03.089Z,83.56
2018-11-06T00:53:29.396Z,82.58
2018-11-06T00:55:55.722Z,82.83
2018-11-06T00:58:22.024Z,83.27
2018-11-06T01:00:48.329Z,82.97
2018-11-06T01:03:14.629Z,81.88
2018-11-06T01:05:40.955Z,81.14
2018-11-06T01:08:07.254Z,80.40
2018-11-06T01:10:33.563Z,80.48
2018-11-06T01:12:59.907Z,80.50
2018-11-06T01:15:26.212Z,81.48
2018-11-06T01:17:52.518Z,82.43
2018-11-06T01:20:18.830Z,82.81
2018-11-06T01:22:45.152Z,82.17
2018-11-06T01:25:11.480Z,82.55
2018-11-06T01:27:37.784Z,81.88
2018-11-06T01:30:04.149Z,80.03
2018-11-06T01:32:30.448Z,82.51
2018-11-06T01:34:56.752Z,80.55
2018-11-06T01:37:23.078Z,80.40
2018-11-06T01:39:49.408Z,79.93
2018-11-06T01:42:15.754Z,81.30
2018-11-06T01:44:42.056Z,81.07
2018-11-06T01:47:08.360Z,80.73
2018-11-06T01:49:34.684Z,80.21
2018-11-06T01:52:00.990Z,80.48
2018-11-06T01:54:27.314Z,80.47
2018-11-06T01:56:53.617Z,79.40
2018-11-06T01:59:19.916Z,80.19
2018-11-06T02:01:46.252Z,80.79
2018-11-06T02:04:12.578Z,81.94
2018-11-06T02:06:38.882Z,81.00
2018-11-06T02:09:05.211Z,81.31
2018-11-06T02:11:31.511Z,80.43
2018-11-06T02:13:57.840Z,79.73
2018-11-06T02:16:24.170Z,79.72
2018-11-06T02:18:50.495Z,79.41
2018-11-06T02:21:16.796Z,79.85
2018-11-06T02:23:43.124Z,79.87
2018-11-06T02:26:09.446Z,80.49
2018-11-06T02:28:35.754Z,81.25
2018-11-06T02:31:02.082Z,80.80
2018-11-06T02:33:28.410Z,80.42
2018-11-06T02:35:54.718Z,80.99
2018-11-06T02:38:21.038Z,80.09
2018-11-06T02:40:47.334Z,78.98
2018-11-06T02:43:13.642Z,79.08
2018-11-06T02:45:39.949Z,79.26
2018-11-06T02:48:06.315Z,78.81
2018-11-06T02:50:32.620Z,78.75
2018-11-06T02:52:58.922Z,79.40
2018-11-06T02:55:25.251Z,77.87
2018-11-06T02:57:51.579Z,79.03
2018-11-06T03:00:17.903Z,78.48
2018-11-06T03:02:44.210Z,78.63
2018-11-06T03:05:10.538Z,79.71
2018-11-06T03:07:36.862Z,79.10
2018-11-06T03:10:03.225Z,79.32
2018-11-06T03:12:29.522Z,79.51
2018-11-06T03:14:55.847Z,78.95
2018-11-06T03:17:22.169Z,78.69
2018-11-06T03:19:48.516Z,78.28
2018-11-06T03:22:14.833Z,79.68
2018-11-06T03:24:41.173Z,79.13
2018-11-06T03:27:07.543Z,79.99
2018-11-06T03:29:33.804Z,80.48
2018-11-06T03:32:00.133Z,80.08
2018-11-06T03:34:26.442Z,80.48
2018-11-06T03:36:52.760Z,81.53
2018-11-06T03:39:19.090Z,82.34
2018-11-06T03:41:45.422Z,82.77
2018-11-06T03:44:11.724Z,81.34
2018-11-06T03:46:38.048Z,82.27
2018-11-06T03:49:04.356Z,83.30
2018-11-06T03:51:30.653Z,83.71
2018-11-06T03:53:56.988Z,83.20
2018-11-06T03:56:23.318Z,82.61
2018-11-06T03:58:49.645Z,82.57
2018-11-06T04:01:15.949Z,82.28
2018-11-06T04:03:42.269Z,82.66
2018-11-06T04:06:08.601Z,82.05
2018-11-06T04:08:34.915Z,81.99
2018-11-06T04:11:01.223Z,81.73
2018-11-06T04:13:27.565Z,81.72
2018-11-06T04:15:53.865Z,80.84
2018-11-06T04:18:20.170Z,82.24
2018-11-06T04:20:46.495Z,82.16
2018-11-06T04:23:12.797Z,81.78
2018-11-06T04:25:39.110Z,81.57
2018-11-06T04:28:05.422Z,83.32
2018-11-06T04:30:31.720Z,83.16
2018-11-06T04:32:58.035Z,83.18
2018-11-06T04:35:24.337Z,82.25
2018-11-06T04:37:50.672Z,81.83
2018-11-06T04:40:17.001Z,82.30
2018-11-06T04:42:43.304Z,82.06
2018-11-06T04:45:09.606Z,81.93
2018-11-06T04:47:35.916Z,83.93
2018-11-06T04:50:02.499Z,83.17
2018-11-06T04:52:28.796Z,83.29
2018-11-06T04:54:55.097Z,81.60
2018-11-06T04:57:21.440Z,81.91
2018-11-06T04:59:47.728Z,83.17
2018-11-06T05:02:14.121Z,83.77
2018-11-06T05:04:40.379Z,83.07
2018-11-06T05:07:06.688Z,81.74
2018-11-06T05:09:33.023Z,82.67
2018-11-06T05:11:59.355Z,82.00
2018-11-06T05:14:25.687Z,81.83
2018-11-06T05:16:51.986Z,81.86
2018-11-06T05:19:18.316Z,81.93
2018-11-06T05:21:44.611Z,81.39
2018-11-06T05:24:10.937Z,80.64
2018-11-06T05:26:37.261Z,80.97
2018-11-06T05:29:03.567Z,80.56
2018-11-06T05:31:29.863Z,80.31
2018-11-06T05:33:56.191Z,79.49
2018-11-06T05:36:22.521Z,79.26
2018-11-06T05:38:48.857Z,80.25
2018-11-06T05:41:15.177Z,81.08
2018-11-06T05:43:41.480Z,81.91
2018-11-06T05:46:07.788Z,82.25
2018-11-06T05:48:34.107Z,82.82
2018-11-06T05:51:00.485Z,83.22
2018-11-06T05:53:26.791Z,83.75
2018-11-06T05:55:53.105Z,83.55
2018-11-06T05:58:19.397Z,82.94
2018-11-06T06:00:45.721Z,82.11
2018-11-06T06:03:12.024Z,81.64
2018-11-06T06:05:38.697Z,81.53
2018-11-06T06:08:04.996Z,81.56
2018-11-06T06:10:31.295Z,81.17
2018-11-06T06:12:57.630Z,81.18
2018-11-06T06:15:23.934Z,80.64
2018-11-06T06:17:50.272Z,80.26
2018-11-06T06:20:16.604Z,79.73
2018-11-06T06:22:42.993Z,79.03
2018-11-06T06:25:09.204Z,78.53
2018-11-06T06:27:35.536Z,77.81
2018-11-06T06:30:01.858Z,77.23
2018-11-06T06:32:28.196Z,76.73
2018-11-06T06:34:54.530Z,75.46
2018-11-06T06:37:20.826Z,74.29
2018-11-06T06:39:47.154Z,72.84
2018-11-06T06:42:13.480Z,71.91
2018-11-06T06:44:39.808Z,71.47
2018-11-06T06:47:06.111Z,72.74
2018-11-06T06:49:32.437Z,71.35
2018-11-06T06:51:58.772Z,72.20
2018-11-06T06:54:25.196Z,73.13
2018-11-06T06:56:51.395Z,71.83
2018-11-06T06:59:17.695Z,71.33
2018-11-06T07:01:44.019Z,70.39
2018-11-06T07:04:10.396Z,70.72
2018-11-06T07:06:36.703Z,69.84
2018-11-06T07:09:03.004Z,69.76
2018-11-06T07:11:29.332Z,68.04
2018-11-06T07:13:55.645Z,68.10
2018-11-06T07:16:21.951Z,66.14
2018-11-06T07:18:48.377Z,67.44
2018-11-06T07:21:14.634Z,67.60
2018-11-06T07:23:40.936Z,67.78
2018-11-06T07:26:07.277Z,68.30
2018-11-06T07:28:33.584Z,67.97
2018-11-06T07:30:59.926Z,67.85
2018-11-06T07:33:26.230Z,68.20
2018-11-06T07:35:52.632Z,66.99
2018-11-06T07:38:18.878Z,66.50
2018-11-06T07:40:45.200Z,65.91
2018-11-06T07:43:11.502Z,66.31
2018-11-06T07:45:37.800Z,66.13
2018-11-06T07:48:04.106Z,66.04
2018-11-06T07:50:30.482Z,65.76
2018-11-06T07:52:56.739Z,64.61
2018-11-06T07:55:23.067Z,64.06
2018-11-06T07:57:49.393Z,63.05
2018-11-06T08:00:15.749Z,63.57
2018-11-06T08:02:42.074Z,63.18
2018-11-06T08:05:08.415Z,63.51
2018-11-06T08:07:34.957Z,63.21
2018-11-06T08:10:01.263Z,64.04
2018-11-06T08:12:27.590Z,62.69
2018-11-06T08:14:53.936Z,62.76
2018-11-06T08:17:20.213Z,62.64
2018-11-06T08:19:46.537Z,61.21
2018-11-06T08:22:12.853Z,61.88
2018-11-06T08:24:39.171Z,61.63
2018-11-06T08:27:05.477Z,59.19
2018-11-06T08:29:31.786Z,59.75
2018-11-06T08:31:58.464Z,60.80
2018-11-06T08:34:24.439Z,60.65
2018-11-06T08:36:50.803Z,60.53
2018-11-06T08:39:17.095Z,59.50
2018-11-06T08:41:43.424Z,57.98
2018-11-06T08:44:09.746Z,58.43
2018-11-06T08:46:36.087Z,59.56
2018-11-06T08:49:02.389Z,58.62
2018-11-06T08:51:28.722Z,58.21
2018-11-06T08:53:55.046Z,57.62
2018-11-06T08:56:21.407Z,57.00
2018-11-06T08:58:47.742Z,57.30
2018-11-06T09:01:14.061Z,57.26
2018-11-06T09:03:40.371Z,55.91
2018-11-06T09:06:06.681Z,56.05
2018-11-06T09:08:33.006Z,56.93
2018-11-06T09:10:59.330Z,55.79
2018-11-06T09:13:25.658Z,54.22
2018-11-06T09:15:51.984Z,53.81
2018-11-06T09:18:18.296Z,53.00
2018-11-06T09:20:44.608Z,52.38
2018-11-06T09:23:10.934Z,52.26
2018-11-06T09:25:37.278Z,53.77
2018-11-06T09:28:03.583Z,53.16
2018-11-06T09:30:29.909Z,51.86
2018-11-06T09:32:56.236Z,51.65
2018-11-06T09:35:22.563Z,50.65
2018-11-06T09:37:48.865Z,50.75
2018-11-06T09:40:15.169Z,49.61
2018-11-06T09:42:41.510Z,48.47
2018-11-06T09:45:07.883Z,48.37
2018-11-06T09:47:34.153Z,48.46
2018-11-06T09:50:00.456Z,48.55
2018-11-06T09:52:26.817Z,48.19
2018-11-06T09:54:53.146Z,49.00
2018-11-06T09:57:19.449Z,48.63
2018-11-06T09:59:45.782Z,47.53
2018-11-06T10:02:12.088Z,46.82
2018-11-06T10:04:38.397Z,46.81
2018-11-06T10:07:05.015Z,46.19
2018-11-06T10:09:31.018Z,44.84
2018-11-06T10:11:57.362Z,43.97
2018-11-06T10:14:23.660Z,44.11
2018-11-06T10:16:49.994Z,43.92
2018-11-06T10:19:16.317Z,43.29
2018-11-06T10:21:42.625Z,42.57
2018-11-06T10:24:08.937Z,43.15
2018-11-06T10:26:35.239Z,42.84
2018-11-06T10:29:01.573Z,42.71
2018-11-06T10:31:27.869Z,41.82
2018-11-06T10:33:54.197Z,42.06
2018-11-06T10:36:20.527Z,41.65
2018-11-06T10:38:46.856Z,41.00
2018-11-06T10:41:13.193Z,40.48
2018-11-06T10:43:39.526Z,39.63
2018-11-06T10:46:05.830Z,39.62
2018-11-06T10:48:32.153Z,37.49
2018-11-06T10:50:58.461Z,36.16
2018-11-06T10:53:24.763Z,37.01
2018-11-06T10:55:51.098Z,37.30
2018-11-06T10:58:17.479Z,37.97
2018-11-06T11:00:43.758Z,36.93
2018-11-06T11:03:10.066Z,35.38
2018-11-06T11:05:36.372Z,36.06
2018-11-06T11:08:02.676Z,35.81
2018-11-06T11:10:28.984Z,35.21
2018-11-06T11:12:55.288Z,35.92
2018-11-06T11:15:21.652Z,35.81
2018-11-06T11:17:47.976Z,34.95
2018-11-06T11:20:14.355Z,33.75
2018-11-06T11:22:40.589Z,32.50
2018-11-06T11:25:06.918Z,32.60
2018-11-06T11:27:33.242Z,32.85
2018-11-06T11:29:59.552Z,33.76
2018-11-06T11:32:25.859Z,33.64
2018-11-06T11:34:52.183Z,33.55
2018-11-06T11:37:18.509Z,33.15
2018-11-06T11:39:44.833Z,33.58
2018-11-06T11:42:11.164Z,32.80
2018-11-06T11:44:37.481Z,32.88
2018-11-06T11:47:03.808Z,33.75
2018-11-06T11:49:30.120Z,33.66
2018-11-06T11:51:56.451Z,33.96
2018-11-06T11:54:22.788Z,34.25
2018-11-06T11:56:49.113Z,34.31
2018-11-06T11:59:15.435Z,34.80
2018-11-06T12:01:41.740Z,35.16
2018-11-06T12:04:08.049Z,35.65
2018-11-06T12:06:34.375Z,35.55
2018-11-06T12:09:00.681Z,35.42
2018-11-06T12:11:26.987Z,37.35
2018-11-06T12:13:53.292Z,37.44
2018-11-06T12:16:19.596Z,36.77
2018-11-06T12:18:45.955Z,36.20
2018-11-06T12:21:12.261Z,36.59
2018-11-06T12:23:38.560Z,36.93
2018-11-06T12:26:04.905Z,36.90
2018-11-06T12:28:31.206Z,37.99
2018-11-06T12:30:57.578Z,37.46
2018-11-06T12:33:23.902Z,37.10
2018-11-06T12:35:50.229Z,37.99
2018-11-06T12:38:16.553Z,38.79
2018-11-06T12:40:42.861Z,39.39
2018-11-06T12:43:09.269Z,39.72
2018-11-06T12:45:35.523Z,39.85
2018-11-06T12:48:01.852Z,41.07
2018-11-06T12:50:28.360Z,40.92
2018-11-06T12:52:54.550Z,41.12
2018-11-06T12:55:20.879Z,41.29
2018-11-06T12:57:47.191Z,41.70
2018-11-06T13:00:13.552Z,41.96
2018-11-06T13:02:39.860Z,41.97
2018-11-06T13:05:06.190Z,41.30
2018-11-06T13:07:32.518Z,41.73
2018-11-06T13:09:58.955Z,43.15
2018-11-06T13:12:25.183Z,43.25
2018-11-06T13:14:51.485Z,43.91
2018-11-06T13:17:17.789Z,44.24
2018-11-06T13:19:44.088Z,43.92
2018-11-06T13:22:10.452Z,44.61
2018-11-06T13:24:36.778Z,45.21
2018-11-06T13:27:03.105Z,45.19
2018-11-06T13:29:29.409Z,45.88
2018-11-06T13:31:55.741Z,46.55
2018-11-06T13:34:22.064Z,46.98
2018-11-06T13:36:48.370Z,46.66
2018-11-06T13:39:14.689Z,47.16
2018-11-06T13:41:41.049Z,47.49
2018-11-06T13:44:07.596Z,48.01
2018-11-06T13:46:33.649Z,48.12
2018-11-06T13:48:59.977Z,48.06
2018-11-06T13:51:26.313Z,48.35
2018-11-06T13:53:52.620Z,49.01
2018-11-06T13:56:18.920Z,49.32
2018-11-06T13:58:45.245Z,49.41
2018-11-06T14:01:11.575Z,49.56
2018-11-06T14:03:37.890Z,49.81
2018-11-06T14:06:04.192Z,49.90
2018-11-06T14:08:30.495Z,50.04
2018-11-06T14:10:56.832Z,50.09
2018-11-06T14:13:23.139Z,50.21
2018-11-06T14:15:49.440Z,50.37
2018-11-06T14:18:15.772Z,50.62
2018-11-06T14:20:42.104Z,50.88
2018-11-06T14:23:08.413Z,50.90
2018-11-06T14:25:34.741Z,51.34
2018-11-06T14:28:01.045Z,51.66
2018-11-06T14:30:27.409Z,52.11
2018-11-06T14:32:53.735Z,52.42
2018-11-06T14:35:20.040Z,52.60
2018-11-06T14:37:46.370Z,52.87
2018-11-06T14:40:12.705Z,53.16
2018-11-06T14:42:39.048Z,53.64
2018-11-06T14:45:05.344Z,54.08
2018-11-06T14:47:31.671Z,54.64
2018-11-06T14:49:58.030Z,54.81
2018-11-06T14:52:24.351Z,55.44
2018-11-06T14:54:50.663Z,55.72
2018-11-06T14:57:16.997Z,56.00
2018-11-06T14:59:43.298Z,56.85
2018-11-06T15:02:09.636Z,57.23
2018-11-06T15:04:35.975Z,57.79
2018-11-06T15:07:02.306Z,58.44
2018-11-06T15:09:28.645Z,58.65
2018-11-06T15:11:55.011Z,59.52
2018-11-06T15:14:21.312Z,59.92
2018-11-06T15:16:47.641Z,60.39
2018-11-06T15:19:13.919Z,61.13
2018-11-06T15:21:40.534Z,61.71
2018-11-06T15:24:06.863Z,62.40
2018-11-06T15:26:33.253Z,62.99
2018-11-06T15:28:59.508Z,63.50
2018-11-06T15:31:25.806Z,64.17
2018-11-06T15:33:52.171Z,64.66
2018-11-06T15:36:18.474Z,64.62
2018-11-06T15:38:44.797Z,65.24
2018-11-06T15:41:11.193Z,65.60
2018-11-06T15:43:37.425Z,65.72
2018-11-06T15:46:03.769Z,65.94
2018-11-06T15:48:30.108Z,66.78
2018-11-06T15:50:56.421Z,67.43
2018-11-06T15:53:22.749Z,68.14
2018-11-06T15:55:49.061Z,68.03
2018-11-06T15:58:15.386Z,68.44
2018-11-06T16:00:41.744Z,68.52
2018-11-06T16:03:08.020Z,69.57
2018-11-06T16:05:34.352Z,70.02
2018-11-06T16:08:00.660Z,70.81
2018-11-06T16:10:26.957Z,70.83
2018-11-06T16:12:53.286Z,71.68
2018-11-06T16:15:19.625Z,72.16
2018-11-06T16:17:45.899Z,72.01
2018-11-06T16:20:12.257Z,71.98
2018-11-06T16:22:38.589Z,72.33
2018-11-06T16:25:04.920Z,72.54
2018-11-06T16:27:31.250Z,72.89
2018-11-06T16:29:57.557Z,73.10
2018-11-06T16:32:23.913Z,73.75
2018-11-06T16:34:50.240Z,74.17
2018-11-06T16:37:16.541Z,73.85
2018-11-06T16:39:42.873Z,74.17
2018-11-06T16:42:09.176Z,74.32
2018-11-06T16:44:35.480Z,74.82
2018-11-06T16:47:01.785Z,75.33
2018-11-06T16:49:28.089Z,75.59
2018-11-06T16:51:54.463Z,75.97
2018-11-06T16:54:20.790Z,76.33
2018-11-06T16:56:47.160Z,76.28
2018-11-06T16:59:13.430Z,76.60
2018-11-06T17:01:39.738Z,76.84
2018-11-06T17:04:06.072Z,76.84
2018-11-06T17:06:32.436Z,76.99
2018-11-06T17:08:58.731Z,77.16
2018-11-06T17:11:25.033Z,77.51
2018-11-06T17:13:51.357Z,77.64
2018-11-06T17:16:17.754Z,77.90
2018-11-06T17:18:44.093Z,78.02
2018-11-06T17:21:10.442Z,78.11
2018-11-06T17:23:36.748Z,78.21
2018-11-06T17:26:03.074Z,77.92
2018-11-06T17:28:29.389Z,78.22
2018-11-06T17:30:55.685Z,78.23
2018-11-06T17:33:21.984Z,78.21
2018-11-06T17:35:48.289Z,78.26
2018-11-06T17:38:14.612Z,78.42
2018-11-06T17:40:40.947Z,78.55
2018-11-06T17:43:07.259Z,78.41
2018-11-06T17:45:33.663Z,78.29
2018-11-06T17:47:59.898Z,78.42
2018-11-06T17:50:26.234Z,78.40
2018-11-06T17:52:52.544Z,78.50
2018-11-06T17:55:18.983Z,78.50
2018-11-06T17:57:45.203Z,78.30
2018-11-06T18:00:11.505Z,78.05
2018-11-06T18:02:37.811Z,77.99
2018-11-06T18:05:04.173Z,78.06
2018-11-06T18:07:30.473Z,78.10
2018-11-06T18:09:56.809Z,78.04
2018-11-06T18:12:23.137Z,77.83
2018-11-06T18:14:49.442Z,78.07
2018-11-06T18:17:15.801Z,78.18
2018-11-06T18:19:42.086Z,77.93
2018-11-06T18:22:08.397Z,78.01
2018-11-06T18:24:34.768Z,77.86
2018-11-06T18:27:01.042Z,78.01
2018-11-06T18:29:27.367Z,77.95
2018-11-06T18:31:53.699Z,78.06
2018-11-06T18:34:20.017Z,77.99
2018-11-06T18:36:46.342Z,78.14
2018-11-06T18:39:12.719Z,78.08
2018-11-06T18:41:38.969Z,78.04
2018-11-06T18:44:05.349Z,78.39
2018-11-06T18:46:31.606Z,78.40
2018-11-06T18:48:57.933Z,78.19
2018-11-06T18:51:24.304Z,78.17
2018-11-06T18:53:50.643Z,78.48
2018-11-06T18:56:16.968Z,78.48
2018-11-06T18:58:43.312Z,78.45
2018-11-06T19:01:09.616Z,78.40
2018-11-06T19:03:35.949Z,78.32
2018-11-06T19:06:02.256Z,78.10
2018-11-06T19:08:28.560Z,78.08
2018-11-06T19:10:54.923Z,77.95
2018-11-06T19:13:21.249Z,77.62
2018-11-06T19:15:47.574Z,77.59
2018-11-06T19:18:13.902Z,77.37
2018-11-06T19:20:40.211Z,77.36
2018-11-06T19:23:06.544Z,77.22
2018-11-06T19:25:32.852Z,77.03
2018-11-06T19:27:59.174Z,76.90
2018-11-06T19:30:25.533Z,77.16
2018-11-06T19:32:51.812Z,77.74
2018-11-06T19:35:18.117Z,77.95
2018-11-06T19:37:44.425Z,78.13
2018-11-06T19:40:10.734Z,78.28
2018-11-06T19:42:37.038Z,78.37
2018-11-06T19:45:03.342Z,78.54
2018-11-06T19:47:29.675Z,78.58
2018-11-06T19:49:56.038Z,78.51
2018-11-06T19:52:22.309Z,78.47
2018-11-06T19:54:48.620Z,78.53
2018-11-06T19:57:14.924Z,78.92
2018-11-06T19:59:41.226Z,79.38
2018-11-06T20:02:07.546Z,79.41
2018-11-06T20:04:33.904Z,79.74
2018-11-06T20:07:00.185Z,79.95
2018-11-06T20:09:26.500Z,80.18
2018-11-06T20:11:52.927Z,80.28
2018-11-06T20:14:21.802Z,80.24
2018-11-06T20:16:45.548Z,80.46
2018-11-06T20:19:11.866Z,80.58
2018-11-06T20:21:38.194Z,80.77
2018-11-06T20:24:04.554Z,80.68
2018-11-06T20:26:30.839Z,80.93
2018-11-06T20:28:57.151Z,80.96
2018-11-06T20:31:23.462Z,80.92
2018-11-06T20:33:49.896Z,80.70
2018-11-06T20:36:16.152Z,80.56
2018-11-06T20:38:42.483Z,80.38
2018-11-06T20:41:08.826Z,80.29
2018-11-06T20:43:35.133Z,80.14
2018-11-06T20:46:01.463Z,80.16
2018-11-06T20:48:27.769Z,80.13
2018-11-06T20:50:55.179Z,80.23
2018-11-06T20:53:21.593Z,80.37
2018-11-06T20:55:47.888Z,80.39
2018-11-06T20:58:14.169Z,80.48
2018-11-06T21:00:40.498Z,80.71
2018-11-06T21:03:06.822Z,80.83
2018-11-06T21:05:33.161Z,80.97
2018-11-06T21:07:59.463Z,81.17
2018-11-06T21:10:25.768Z,81.03
2018-11-06T21:12:52.101Z,81.33
2018-11-06T21:15:18.432Z,81.50
2018-11-06T21:17:44.775Z,81.71
2018-11-06T21:20:11.116Z,81.91
2018-11-06T21:22:37.413Z,81.98
2018-11-06T21:25:03.806Z,81.96
2018-11-06T21:27:30.044Z,81.92
2018-11-06T21:29:56.418Z,81.85
2018-11-06T21:32:22.745Z,81.88
2018-11-06T21:34:49.046Z,81.92
2018-11-06T21:37:15.382Z,81.92
2018-11-06T21:39:41.679Z,81.84
2018-11-06T21:42:08.042Z,81.91
2018-11-06T21:44:34.297Z,81.77
2018-11-06T21:47:00.603Z,81.96
2018-11-06T21:49:26.913Z,81.92
2018-11-06T21:51:53.219Z,81.88
2018-11-06T21:54:19.539Z,81.97
2018-11-06T21:56:45.881Z,82.17
2018-11-06T21:59:12.218Z,82.11
2018-11-06T22:01:38.542Z,82.12
2018-11-06T22:04:04.846Z,82.08
2018-11-06T22:06:31.191Z,82.17
2018-11-06T22:08:57.514Z,82.13
2018-11-06T22:11:23.851Z,81.91
2018-11-06T22:13:50.179Z,81.87
2018-11-06T22:16:16.483Z,81.94
2018-11-06T22:18:42.811Z,81.99
2018-11-06T22:21:09.112Z,81.84
2018-11-06T22:23:35.462Z,81.83
2018-11-06T22:26:01.787Z,81.90
2018-11-06T22:28:28.120Z,82.06
2018-11-06T22:30:54.451Z,82.20
2018-11-06T22:33:20.761Z,82.21
2018-11-06T22:35:47.098Z,82.17
2018-11-06T22:38:13.513Z,82.29
2018-11-06T22:40:39.734Z,82.32
2018-11-06T22:43:06.042Z,82.32
2018-11-06T22:45:32.379Z,82.28
2018-11-06T22:47:58.685Z,82.14
2018-11-06T22:50:25.014Z,82.26
2018-11-06T22:52:51.318Z,82.29
2018-11-06T22:55:17.643Z,82.13
2018-11-06T22:57:43.984Z,82.05
2018-11-06T23:00:10.348Z,82.06
2018-11-06T23:02:36.649Z,81.97
2018-11-06T23:05:02.979Z,81.85
2018-11-06T23:07:29.285Z,81.93
2018-11-06T23:09:55.612Z,82.22
2018-11-06T23:12:21.984Z,82.23
2018-11-06T23:14:48.286Z,82.15
2018-11-06T23:17:14.586Z,82.19
2018-11-06T23:19:40.910Z,82.01
2018-11-06T23:22:07.262Z,82.04
2018-11-06T23:24:33.590Z,81.96
2018-11-06T23:26:59.918Z,81.91
2018-11-06T23:29:26.244Z,81.89
2018-11-06T23:31:52.599Z,81.88
2018-11-06T23:34:18.923Z,81.97
2018-11-06T23:36:45.240Z,81.80
2018-11-06T23:39:11.562Z,81.94
2018-11-06T23:41:37.891Z,82.01
2018-11-06T23:44:04.254Z,81.91
2018-11-06T23:46:30.557Z,81.98
2018-11-06T23:48:56.871Z,81.99
2018-11-06T23:51:23.196Z,82.06
2018-11-06T23:53:49.525Z,82.16
2018-11-06T23:56:15.926Z,82.15
2018-11-06T23:58:42.191Z,82.21
